sensor_id;sensor_type;location;lat;lon;timestamp;temperature;humidity
22852;DHT22;11592;45.460;9.240;2023-06-22T00:00:53;27.30;99.90
22852;DHT22;11592;45.460;9.240;2023-06-22T00:03:22;27.30;99.90
22852;DHT22;11592;45.460;9.240;2023-06-22T00:05:50;27.10;99.90
22852;DHT22;11592;45.460;9.240;2023-06-22T00:08:18;26.90;99.90
22852;DHT22;11592;45.460;9.240;2023-06-22T00:10:45;26.70;99.90
22852;DHT22;11592;45.460;9.240;2023-06-22T00:13:13;26.60;99.90
22852;DHT22;11592;45.460;9.240;2023-06-22T00:15:41;26.50;99.90
22852;DHT22;11592;45.460;9.240;2023-06-22T00:18:09;26.60;99.90
22852;DHT22;11592;45.460;9.240;2023-06-22T00:20:37;26.50;99.90
22852;DHT22;11592;45.460;9.240;2023-06-22T00:23:05;26.40;99.90
22852;DHT22;11592;45.460;9.240;2023-06-22T00:25:34;26.40;99.90
22852;DHT22;11592;45.460;9.240;2023-06-22T00:28:01;26.40;99.90
22852;DHT22;11592;45.460;9.240;2023-06-22T00:30:28;26.40;99.90
22852;DHT22;11592;45.460;9.240;2023-06-22T00:32:55;26.30;99.90
22852;DHT22;11592;45.460;9.240;2023-06-22T00:35:22;26.30;99.90
22852;DHT22;11592;45.460;9.240;2023-06-22T00:37:49;26.40;99.90
22852;DHT22;11592;45.460;9.240;2023-06-22T00:40:16;26.40;99.90
22852;DHT22;11592;45.460;9.240;2023-06-22T00:42:48;26.40;99.90
22852;DHT22;11592;45.460;9.240;2023-06-22T00:45:14;26.30;99.90
22852;DHT22;11592;45.460;9.240;2023-06-22T00:47:42;26.40;99.90
22852;DHT22;11592;45.460;9.240;2023-06-22T00:50:17;26.40;99.90
22852;DHT22;11592;45.460;9.240;2023-06-22T00:52:45;26.30;99.90
22852;DHT22;11592;45.460;9.240;2023-06-22T00:55:12;26.40;99.90
22852;DHT22;11592;45.460;9.240;2023-06-22T00:57:41;26.40;99.90
22852;DHT22;11592;45.460;9.240;2023-06-22T01:00:08;26.40;99.90
22852;DHT22;11592;45.460;9.240;2023-06-22T01:02:37;26.40;99.90
22852;DHT22;11592;45.460;9.240;2023-06-22T01:05:05;26.20;99.90
22852;DHT22;11592;45.460;9.240;2023-06-22T01:10:18;26.20;99.90
22852;DHT22;11592;45.460;9.240;2023-06-22T01:12:50;26.30;99.90
22852;DHT22;11592;45.460;9.240;2023-06-22T01:15:27;26.20;99.90
22852;DHT22;11592;45.460;9.240;2023-06-22T01:17:56;26.30;99.90
22852;DHT22;11592;45.460;9.240;2023-06-22T01:20:26;26.30;99.90
22852;DHT22;11592;45.460;9.240;2023-06-22T01:23:16;26.20;99.90
22852;DHT22;11592;45.460;9.240;2023-06-22T01:25:59;26.10;99.90
22852;DHT22;11592;45.460;9.240;2023-06-22T01:28:48;26.00;99.90
22852;DHT22;11592;45.460;9.240;2023-06-22T01:31:18;26.10;99.90
22852;DHT22;11592;45.460;9.240;2023-06-22T01:33:55;26.00;99.90
22852;DHT22;11592;45.460;9.240;2023-06-22T01:36:24;26.10;99.90
22852;DHT22;11592;45.460;9.240;2023-06-22T01:38:52;26.20;99.90
22852;DHT22;11592;45.460;9.240;2023-06-22T01:41:20;26.10;99.90
22852;DHT22;11592;45.460;9.240;2023-06-22T01:43:48;26.10;99.90
22852;DHT22;11592;45.460;9.240;2023-06-22T01:46:16;26.00;99.90
22852;DHT22;11592;45.460;9.240;2023-06-22T01:48:46;26.00;99.90
22852;DHT22;11592;45.460;9.240;2023-06-22T01:51:14;26.10;99.90
22852;DHT22;11592;45.460;9.240;2023-06-22T01:53:41;26.00;99.90
22852;DHT22;11592;45.460;9.240;2023-06-22T01:56:09;26.10;99.90
22852;DHT22;11592;45.460;9.240;2023-06-22T01:58:42;26.00;99.90
22852;DHT22;11592;45.460;9.240;2023-06-22T02:01:14;26.10;99.90
22852;DHT22;11592;45.460;9.240;2023-06-22T02:03:47;26.10;99.90
22852;DHT22;11592;45.460;9.240;2023-06-22T02:06:25;26.00;99.90
22852;DHT22;11592;45.460;9.240;2023-06-22T02:08:59;26.00;99.90
22852;DHT22;11592;45.460;9.240;2023-06-22T02:11:28;26.10;99.90
22852;DHT22;11592;45.460;9.240;2023-06-22T02:13:58;26.10;99.90
22852;DHT22;11592;45.460;9.240;2023-06-22T02:16:25;26.00;99.90
22852;DHT22;11592;45.460;9.240;2023-06-22T02:18:56;26.00;99.90
22852;DHT22;11592;45.460;9.240;2023-06-22T02:21:24;26.00;99.90
22852;DHT22;11592;45.460;9.240;2023-06-22T02:23:51;26.00;99.90
22852;DHT22;11592;45.460;9.240;2023-06-22T02:26:18;26.00;99.90
22852;DHT22;11592;45.460;9.240;2023-06-22T02:28:45;26.00;99.90
22852;DHT22;11592;45.460;9.240;2023-06-22T02:31:12;26.00;99.90
22852;DHT22;11592;45.460;9.240;2023-06-22T02:33:39;26.00;99.90
22852;DHT22;11592;45.460;9.240;2023-06-22T02:36:06;25.90;99.90
22852;DHT22;11592;45.460;9.240;2023-06-22T02:38:35;25.90;99.90
22852;DHT22;11592;45.460;9.240;2023-06-22T02:41:02;25.90;99.90
22852;DHT22;11592;45.460;9.240;2023-06-22T02:43:29;25.90;99.90
22852;DHT22;11592;45.460;9.240;2023-06-22T02:45:56;25.90;99.90
22852;DHT22;11592;45.460;9.240;2023-06-22T02:48:23;25.80;99.90
22852;DHT22;11592;45.460;9.240;2023-06-22T02:50:50;25.80;99.90
22852;DHT22;11592;45.460;9.240;2023-06-22T02:53:17;25.90;99.90
22852;DHT22;11592;45.460;9.240;2023-06-22T02:55:43;25.90;99.90
22852;DHT22;11592;45.460;9.240;2023-06-22T02:58:10;25.80;99.90
22852;DHT22;11592;45.460;9.240;2023-06-22T03:00:37;25.80;99.90
22852;DHT22;11592;45.460;9.240;2023-06-22T03:03:06;25.90;99.90
22852;DHT22;11592;45.460;9.240;2023-06-22T03:05:33;25.90;99.90
22852;DHT22;11592;45.460;9.240;2023-06-22T03:08:02;25.90;99.90
22852;DHT22;11592;45.460;9.240;2023-06-22T03:10:28;25.80;99.90
22852;DHT22;11592;45.460;9.240;2023-06-22T03:12:56;25.90;99.90
22852;DHT22;11592;45.460;9.240;2023-06-22T03:15:22;25.90;99.90
22852;DHT22;11592;45.460;9.240;2023-06-22T03:17:49;25.90;99.90
22852;DHT22;11592;45.460;9.240;2023-06-22T03:20:16;25.80;99.90
22852;DHT22;11592;45.460;9.240;2023-06-22T03:22:43;25.70;99.90
22852;DHT22;11592;45.460;9.240;2023-06-22T03:25:10;25.60;99.90
22852;DHT22;11592;45.460;9.240;2023-06-22T03:27:40;25.60;99.90
22852;DHT22;11592;45.460;9.240;2023-06-22T03:30:09;25.60;99.90
22852;DHT22;11592;45.460;9.240;2023-06-22T03:32:36;25.60;99.90
22852;DHT22;11592;45.460;9.240;2023-06-22T03:35:03;25.80;99.90
22852;DHT22;11592;45.460;9.240;2023-06-22T03:37:30;25.70;99.90
22852;DHT22;11592;45.460;9.240;2023-06-22T03:39:57;25.70;99.90
22852;DHT22;11592;45.460;9.240;2023-06-22T03:42:24;25.70;99.90
22852;DHT22;11592;45.460;9.240;2023-06-22T03:44:50;25.70;99.90
22852;DHT22;11592;45.460;9.240;2023-06-22T03:47:18;25.80;99.90
22852;DHT22;11592;45.460;9.240;2023-06-22T03:49:44;25.80;99.90
22852;DHT22;11592;45.460;9.240;2023-06-22T03:52:11;25.80;99.90
22852;DHT22;11592;45.460;9.240;2023-06-22T03:54:38;25.80;99.90
22852;DHT22;11592;45.460;9.240;2023-06-22T03:57:05;25.80;99.90
22852;DHT22;11592;45.460;9.240;2023-06-22T03:59:32;25.80;99.90
22852;DHT22;11592;45.460;9.240;2023-06-22T04:01:59;25.80;99.90
22852;DHT22;11592;45.460;9.240;2023-06-22T04:04:26;25.70;99.90
22852;DHT22;11592;45.460;9.240;2023-06-22T04:06:53;25.60;99.90
22852;DHT22;11592;45.460;9.240;2023-06-22T04:09:20;25.60;99.90
22852;DHT22;11592;45.460;9.240;2023-06-22T04:11:48;25.60;99.90
22852;DHT22;11592;45.460;9.240;2023-06-22T04:14:15;25.60;99.90
22852;DHT22;11592;45.460;9.240;2023-06-22T04:16:42;25.60;99.90
22852;DHT22;11592;45.460;9.240;2023-06-22T04:19:08;25.60;99.90
22852;DHT22;11592;45.460;9.240;2023-06-22T04:21:40;25.70;99.90
22852;DHT22;11592;45.460;9.240;2023-06-22T04:24:07;25.80;99.90
22852;DHT22;11592;45.460;9.240;2023-06-22T04:26:34;25.80;99.90
22852;DHT22;11592;45.460;9.240;2023-06-22T04:29:04;25.80;99.90
22852;DHT22;11592;45.460;9.240;2023-06-22T04:31:32;25.80;99.90
22852;DHT22;11592;45.460;9.240;2023-06-22T04:34:04;25.80;99.90
22852;DHT22;11592;45.460;9.240;2023-06-22T04:36:38;25.80;99.90
22852;DHT22;11592;45.460;9.240;2023-06-22T04:39:12;25.80;99.90
22852;DHT22;11592;45.460;9.240;2023-06-22T04:41:40;25.80;99.90
22852;DHT22;11592;45.460;9.240;2023-06-22T04:44:19;25.80;99.90
22852;DHT22;11592;45.460;9.240;2023-06-22T04:46:54;25.90;99.90
22852;DHT22;11592;45.460;9.240;2023-06-22T04:49:27;25.80;99.90
22852;DHT22;11592;45.460;9.240;2023-06-22T04:52:02;25.90;99.90
22852;DHT22;11592;45.460;9.240;2023-06-22T04:54:30;25.90;99.90
22852;DHT22;11592;45.460;9.240;2023-06-22T04:57:03;25.90;99.90
22852;DHT22;11592;45.460;9.240;2023-06-22T04:59:31;25.90;99.90
22852;DHT22;11592;45.460;9.240;2023-06-22T05:02:02;25.90;99.90
22852;DHT22;11592;45.460;9.240;2023-06-22T05:04:30;26.00;99.90
22852;DHT22;11592;45.460;9.240;2023-06-22T05:07:03;26.00;99.90
22852;DHT22;11592;45.460;9.240;2023-06-22T05:09:30;26.00;99.90
22852;DHT22;11592;45.460;9.240;2023-06-22T05:11:57;26.00;99.90
22852;DHT22;11592;45.460;9.240;2023-06-22T05:14:23;25.90;99.90
22852;DHT22;11592;45.460;9.240;2023-06-22T05:16:50;25.90;99.90
22852;DHT22;11592;45.460;9.240;2023-06-22T05:19:18;26.00;99.90
22852;DHT22;11592;45.460;9.240;2023-06-22T05:21:45;26.10;99.90
22852;DHT22;11592;45.460;9.240;2023-06-22T05:24:12;26.20;99.90
22852;DHT22;11592;45.460;9.240;2023-06-22T05:26:39;26.20;99.90
22852;DHT22;11592;45.460;9.240;2023-06-22T05:29:06;26.20;99.90
22852;DHT22;11592;45.460;9.240;2023-06-22T05:31:33;26.30;99.90
22852;DHT22;11592;45.460;9.240;2023-06-22T05:34:00;26.40;99.90
22852;DHT22;11592;45.460;9.240;2023-06-22T05:36:27;26.40;99.90
22852;DHT22;11592;45.460;9.240;2023-06-22T05:38:56;26.50;99.90
22852;DHT22;11592;45.460;9.240;2023-06-22T05:41:23;26.50;99.90
22852;DHT22;11592;45.460;9.240;2023-06-22T05:43:50;26.50;99.90
22852;DHT22;11592;45.460;9.240;2023-06-22T05:46:18;26.60;99.90
22852;DHT22;11592;45.460;9.240;2023-06-22T05:48:45;26.60;99.90
22852;DHT22;11592;45.460;9.240;2023-06-22T05:51:12;26.50;99.90
22852;DHT22;11592;45.460;9.240;2023-06-22T05:53:39;26.30;99.90
22852;DHT22;11592;45.460;9.240;2023-06-22T05:56:05;26.40;99.90
22852;DHT22;11592;45.460;9.240;2023-06-22T05:58:32;26.40;99.90
22852;DHT22;11592;45.460;9.240;2023-06-22T06:00:59;26.50;99.90
22852;DHT22;11592;45.460;9.240;2023-06-22T06:03:27;26.50;99.90
22852;DHT22;11592;45.460;9.240;2023-06-22T06:05:55;26.50;99.90
22852;DHT22;11592;45.460;9.240;2023-06-22T06:08:22;26.50;99.90
22852;DHT22;11592;45.460;9.240;2023-06-22T06:10:49;26.60;99.90
22852;DHT22;11592;45.460;9.240;2023-06-22T06:13:16;26.80;99.90
22852;DHT22;11592;45.460;9.240;2023-06-22T06:15:43;26.90;99.90
22852;DHT22;11592;45.460;9.240;2023-06-22T06:18:09;26.90;99.90
22852;DHT22;11592;45.460;9.240;2023-06-22T06:20:36;27.20;99.90
22852;DHT22;11592;45.460;9.240;2023-06-22T06:23:03;27.40;99.90
22852;DHT22;11592;45.460;9.240;2023-06-22T06:25:30;27.60;99.90
22852;DHT22;11592;45.460;9.240;2023-06-22T06:27:57;27.70;99.90
22852;DHT22;11592;45.460;9.240;2023-06-22T06:30:24;27.90;99.90
22852;DHT22;11592;45.460;9.240;2023-06-22T06:32:51;28.00;99.90
22852;DHT22;11592;45.460;9.240;2023-06-22T06:35:18;27.90;99.90
22852;DHT22;11592;45.460;9.240;2023-06-22T06:37:47;27.90;99.90
22852;DHT22;11592;45.460;9.240;2023-06-22T06:40:15;27.70;99.90
22852;DHT22;11592;45.460;9.240;2023-06-22T06:42:44;27.70;99.90
22852;DHT22;11592;45.460;9.240;2023-06-22T06:45:14;27.70;99.90
22852;DHT22;11592;45.460;9.240;2023-06-22T06:47:41;27.70;99.90
22852;DHT22;11592;45.460;9.240;2023-06-22T06:50:08;27.80;99.90
22852;DHT22;11592;45.460;9.240;2023-06-22T06:52:36;27.90;99.90
22852;DHT22;11592;45.460;9.240;2023-06-22T06:55:05;28.00;99.90
22852;DHT22;11592;45.460;9.240;2023-06-22T06:57:35;28.00;99.90
22852;DHT22;11592;45.460;9.240;2023-06-22T07:00:08;28.10;99.90
22852;DHT22;11592;45.460;9.240;2023-06-22T07:02:39;28.20;99.90
22852;DHT22;11592;45.460;9.240;2023-06-22T07:05:10;28.30;99.90
22852;DHT22;11592;45.460;9.240;2023-06-22T07:07:38;28.20;99.90
22852;DHT22;11592;45.460;9.240;2023-06-22T07:10:05;28.40;99.90
22852;DHT22;11592;45.460;9.240;2023-06-22T07:12:33;28.40;99.90
22852;DHT22;11592;45.460;9.240;2023-06-22T07:17:31;28.70;99.90
22852;DHT22;11592;45.460;9.240;2023-06-22T07:19:57;28.70;99.90
22852;DHT22;11592;45.460;9.240;2023-06-22T07:22:24;28.80;99.90
22852;DHT22;11592;45.460;9.240;2023-06-22T07:24:51;28.80;99.90
22852;DHT22;11592;45.460;9.240;2023-06-22T07:27:18;28.90;99.90
22852;DHT22;11592;45.460;9.240;2023-06-22T07:29:46;29.00;99.90
22852;DHT22;11592;45.460;9.240;2023-06-22T07:32:13;29.00;99.90
22852;DHT22;11592;45.460;9.240;2023-06-22T07:34:40;29.00;99.90
22852;DHT22;11592;45.460;9.240;2023-06-22T07:37:07;29.00;99.90
22852;DHT22;11592;45.460;9.240;2023-06-22T07:39:34;28.90;99.90
22852;DHT22;11592;45.460;9.240;2023-06-22T07:42:01;28.80;99.90
22852;DHT22;11592;45.460;9.240;2023-06-22T07:44:28;28.90;99.90
22852;DHT22;11592;45.460;9.240;2023-06-22T07:46:55;28.90;99.90
22852;DHT22;11592;45.460;9.240;2023-06-22T07:49:22;28.90;99.90
22852;DHT22;11592;45.460;9.240;2023-06-22T07:51:48;29.00;99.90
22852;DHT22;11592;45.460;9.240;2023-06-22T07:54:15;29.00;99.90
22852;DHT22;11592;45.460;9.240;2023-06-22T07:56:43;29.10;99.90
22852;DHT22;11592;45.460;9.240;2023-06-22T07:59:12;29.20;99.90
22852;DHT22;11592;45.460;9.240;2023-06-22T08:01:39;29.30;99.90
22852;DHT22;11592;45.460;9.240;2023-06-22T08:04:05;29.40;99.90
22852;DHT22;11592;45.460;9.240;2023-06-22T08:06:32;29.50;99.90
22852;DHT22;11592;45.460;9.240;2023-06-22T08:08:59;29.60;99.90
22852;DHT22;11592;45.460;9.240;2023-06-22T08:11:26;29.60;99.90
22852;DHT22;11592;45.460;9.240;2023-06-22T08:13:53;29.60;99.90
22852;DHT22;11592;45.460;9.240;2023-06-22T08:16:22;29.70;99.90
22852;DHT22;11592;45.460;9.240;2023-06-22T08:18:49;29.50;99.90
22852;DHT22;11592;45.460;9.240;2023-06-22T08:21:15;29.50;99.90
22852;DHT22;11592;45.460;9.240;2023-06-22T08:23:42;29.50;99.90
22852;DHT22;11592;45.460;9.240;2023-06-22T08:26:09;29.60;99.90
22852;DHT22;11592;45.460;9.240;2023-06-22T08:28:36;29.70;99.90
22852;DHT22;11592;45.460;9.240;2023-06-22T08:31:03;29.80;99.90
22852;DHT22;11592;45.460;9.240;2023-06-22T08:33:30;29.80;99.90
22852;DHT22;11592;45.460;9.240;2023-06-22T08:35:58;29.90;99.90
22852;DHT22;11592;45.460;9.240;2023-06-22T08:38:26;29.80;99.90
22852;DHT22;11592;45.460;9.240;2023-06-22T08:40:53;29.90;99.90
22852;DHT22;11592;45.460;9.240;2023-06-22T08:43:19;30.00;99.90
22852;DHT22;11592;45.460;9.240;2023-06-22T08:45:46;30.20;99.90
22852;DHT22;11592;45.460;9.240;2023-06-22T08:48:13;30.40;99.90
22852;DHT22;11592;45.460;9.240;2023-06-22T08:50:40;30.30;99.90
22852;DHT22;11592;45.460;9.240;2023-06-22T08:53:07;30.10;99.90
22852;DHT22;11592;45.460;9.240;2023-06-22T08:55:34;29.90;99.90
22852;DHT22;11592;45.460;9.240;2023-06-22T08:58:01;29.90;99.90
22852;DHT22;11592;45.460;9.240;2023-06-22T09:00:27;30.10;99.90
22852;DHT22;11592;45.460;9.240;2023-06-22T09:02:56;30.40;99.90
22852;DHT22;11592;45.460;9.240;2023-06-22T09:05:25;30.60;99.90
22852;DHT22;11592;45.460;9.240;2023-06-22T09:07:58;30.80;99.90
22852;DHT22;11592;45.460;9.240;2023-06-22T09:10:26;31.00;99.90
22852;DHT22;11592;45.460;9.240;2023-06-22T09:12:53;31.00;99.90
22852;DHT22;11592;45.460;9.240;2023-06-22T09:15:20;31.10;99.90
22852;DHT22;11592;45.460;9.240;2023-06-22T09:17:47;31.20;99.90
22852;DHT22;11592;45.460;9.240;2023-06-22T09:20:14;31.40;99.90
22852;DHT22;11592;45.460;9.240;2023-06-22T09:22:42;31.20;99.90
22852;DHT22;11592;45.460;9.240;2023-06-22T09:25:09;31.10;99.90
22852;DHT22;11592;45.460;9.240;2023-06-22T09:27:36;31.20;99.90
22852;DHT22;11592;45.460;9.240;2023-06-22T09:30:03;31.20;99.90
22852;DHT22;11592;45.460;9.240;2023-06-22T09:32:30;31.30;99.90
22852;DHT22;11592;45.460;9.240;2023-06-22T09:34:57;31.50;99.90
22852;DHT22;11592;45.460;9.240;2023-06-22T09:37:24;31.50;99.90
22852;DHT22;11592;45.460;9.240;2023-06-22T09:39:51;31.60;99.90
22852;DHT22;11592;45.460;9.240;2023-06-22T09:42:17;31.70;99.90
22852;DHT22;11592;45.460;9.240;2023-06-22T09:44:44;31.80;99.90
22852;DHT22;11592;45.460;9.240;2023-06-22T09:47:11;31.90;99.90
22852;DHT22;11592;45.460;9.240;2023-06-22T09:49:38;32.00;99.90
22852;DHT22;11592;45.460;9.240;2023-06-22T09:52:15;31.90;99.90
22852;DHT22;11592;45.460;9.240;2023-06-22T09:54:42;32.10;99.90
22852;DHT22;11592;45.460;9.240;2023-06-22T09:57:09;32.10;99.90
22852;DHT22;11592;45.460;9.240;2023-06-22T09:59:36;32.20;99.90
22852;DHT22;11592;45.460;9.240;2023-06-22T10:02:03;32.30;99.90
22852;DHT22;11592;45.460;9.240;2023-06-22T10:04:30;32.40;99.90
22852;DHT22;11592;45.460;9.240;2023-06-22T10:06:57;32.40;99.90
22852;DHT22;11592;45.460;9.240;2023-06-22T10:09:24;32.40;99.90
22852;DHT22;11592;45.460;9.240;2023-06-22T10:11:51;32.60;99.90
22852;DHT22;11592;45.460;9.240;2023-06-22T10:14:18;32.60;99.90
22852;DHT22;11592;45.460;9.240;2023-06-22T10:16:45;32.70;99.90
22852;DHT22;11592;45.460;9.240;2023-06-22T10:19:12;32.80;99.90
22852;DHT22;11592;45.460;9.240;2023-06-22T10:21:39;33.00;99.90
22852;DHT22;11592;45.460;9.240;2023-06-22T10:24:06;33.10;99.90
22852;DHT22;11592;45.460;9.240;2023-06-22T10:26:33;33.10;99.80
22852;DHT22;11592;45.460;9.240;2023-06-22T10:29:01;33.30;99.90
22852;DHT22;11592;45.460;9.240;2023-06-22T10:31:42;33.40;99.90
22852;DHT22;11592;45.460;9.240;2023-06-22T10:34:09;33.50;99.90
22852;DHT22;11592;45.460;9.240;2023-06-22T10:36:36;33.70;99.80
22852;DHT22;11592;45.460;9.240;2023-06-22T10:39:02;33.80;99.90
22852;DHT22;11592;45.460;9.240;2023-06-22T10:41:29;34.00;99.60
22852;DHT22;11592;45.460;9.240;2023-06-22T10:43:57;34.10;99.40
22852;DHT22;11592;45.460;9.240;2023-06-22T10:46:25;34.20;98.90
22852;DHT22;11592;45.460;9.240;2023-06-22T10:48:52;34.30;99.90
22852;DHT22;11592;45.460;9.240;2023-06-22T10:51:21;34.30;98.20
22852;DHT22;11592;45.460;9.240;2023-06-22T10:53:48;34.40;98.60
22852;DHT22;11592;45.460;9.240;2023-06-22T10:56:15;34.40;98.50
22852;DHT22;11592;45.460;9.240;2023-06-22T10:58:42;34.50;97.60
22852;DHT22;11592;45.460;9.240;2023-06-22T11:01:09;34.50;97.40
22852;DHT22;11592;45.460;9.240;2023-06-22T11:03:55;34.50;97.70
22852;DHT22;11592;45.460;9.240;2023-06-22T11:06:22;34.50;97.60
22852;DHT22;11592;45.460;9.240;2023-06-22T11:08:49;34.50;97.10
22852;DHT22;11592;45.460;9.240;2023-06-22T11:11:32;34.60;96.20
22852;DHT22;11592;45.460;9.240;2023-06-22T11:13:59;34.40;95.80
22852;DHT22;11592;45.460;9.240;2023-06-22T11:16:26;34.50;96.80
22852;DHT22;11592;45.460;9.240;2023-06-22T11:18:53;34.80;99.10
22852;DHT22;11592;45.460;9.240;2023-06-22T11:21:20;35.10;98.60
22852;DHT22;11592;45.460;9.240;2023-06-22T11:23:47;35.10;95.00
22852;DHT22;11592;45.460;9.240;2023-06-22T11:26:14;35.00;95.80
22852;DHT22;11592;45.460;9.240;2023-06-22T11:28:41;35.10;95.60
22852;DHT22;11592;45.460;9.240;2023-06-22T11:31:08;35.10;97.30
22852;DHT22;11592;45.460;9.240;2023-06-22T11:33:55;34.90;95.30
22852;DHT22;11592;45.460;9.240;2023-06-22T11:36:22;34.90;95.30
22852;DHT22;11592;45.460;9.240;2023-06-22T11:38:49;34.90;95.30
22852;DHT22;11592;45.460;9.240;2023-06-22T11:41:15;35.10;96.20
22852;DHT22;11592;45.460;9.240;2023-06-22T11:43:42;35.40;95.20
22852;DHT22;11592;45.460;9.240;2023-06-22T11:46:10;35.70;94.50
22852;DHT22;11592;45.460;9.240;2023-06-22T11:48:37;35.80;95.70
22852;DHT22;11592;45.460;9.240;2023-06-22T11:51:04;36.00;95.40
22852;DHT22;11592;45.460;9.240;2023-06-22T11:53:34;36.20;93.70
22852;DHT22;11592;45.460;9.240;2023-06-22T11:56:01;36.20;95.20
22852;DHT22;11592;45.460;9.240;2023-06-22T11:58:28;36.20;94.90
22852;DHT22;11592;45.460;9.240;2023-06-22T12:00:55;36.10;94.30
22852;DHT22;11592;45.460;9.240;2023-06-22T12:03:22;36.30;93.90
22852;DHT22;11592;45.460;9.240;2023-06-22T12:05:50;36.40;94.50
22852;DHT22;11592;45.460;9.240;2023-06-22T12:08:18;36.50;93.90
22852;DHT22;11592;45.460;9.240;2023-06-22T12:10:45;36.80;95.30
22852;DHT22;11592;45.460;9.240;2023-06-22T12:13:12;36.80;92.70
22852;DHT22;11592;45.460;9.240;2023-06-22T12:15:39;36.70;93.10
22852;DHT22;11592;45.460;9.240;2023-06-22T12:18:06;36.40;92.10
22852;DHT22;11592;45.460;9.240;2023-06-22T12:20:33;36.50;91.80
22852;DHT22;11592;45.460;9.240;2023-06-22T12:23:00;36.70;93.00
22852;DHT22;11592;45.460;9.240;2023-06-22T12:25:27;36.60;93.10
22852;DHT22;11592;45.460;9.240;2023-06-22T12:27:53;36.40;92.40
22852;DHT22;11592;45.460;9.240;2023-06-22T12:30:20;36.50;93.60
22852;DHT22;11592;45.460;9.240;2023-06-22T12:32:47;36.80;91.90
22852;DHT22;11592;45.460;9.240;2023-06-22T12:35:14;36.50;90.50
22852;DHT22;11592;45.460;9.240;2023-06-22T12:37:42;36.50;91.10
22852;DHT22;11592;45.460;9.240;2023-06-22T12:40:09;35.80;91.80
22852;DHT22;11592;45.460;9.240;2023-06-22T12:42:36;35.70;92.50
22852;DHT22;11592;45.460;9.240;2023-06-22T12:45:04;35.60;93.40
22852;DHT22;11592;45.460;9.240;2023-06-22T12:47:31;35.30;93.80
22852;DHT22;11592;45.460;9.240;2023-06-22T12:49:58;35.10;94.60
22852;DHT22;11592;45.460;9.240;2023-06-22T12:52:25;35.00;94.40
22852;DHT22;11592;45.460;9.240;2023-06-22T12:54:52;35.20;95.10
22852;DHT22;11592;45.460;9.240;2023-06-22T12:57:21;35.30;96.00
22852;DHT22;11592;45.460;9.240;2023-06-22T12:59:49;35.70;96.90
22852;DHT22;11592;45.460;9.240;2023-06-22T13:02:15;36.10;95.40
22852;DHT22;11592;45.460;9.240;2023-06-22T13:04:43;36.60;95.60
22852;DHT22;11592;45.460;9.240;2023-06-22T13:07:10;36.90;94.50
22852;DHT22;11592;45.460;9.240;2023-06-22T13:09:40;37.20;94.50
22852;DHT22;11592;45.460;9.240;2023-06-22T13:12:07;37.50;94.20
22852;DHT22;11592;45.460;9.240;2023-06-22T13:14:34;37.60;94.80
22852;DHT22;11592;45.460;9.240;2023-06-22T13:17:01;37.50;92.60
22852;DHT22;11592;45.460;9.240;2023-06-22T13:19:28;37.20;93.00
22852;DHT22;11592;45.460;9.240;2023-06-22T13:21:59;37.20;94.20
22852;DHT22;11592;45.460;9.240;2023-06-22T13:24:26;37.50;94.20
22852;DHT22;11592;45.460;9.240;2023-06-22T13:26:53;37.60;94.40
22852;DHT22;11592;45.460;9.240;2023-06-22T13:29:20;37.40;93.30
22852;DHT22;11592;45.460;9.240;2023-06-22T13:31:46;37.20;94.30
22852;DHT22;11592;45.460;9.240;2023-06-22T13:34:13;37.00;93.70
22852;DHT22;11592;45.460;9.240;2023-06-22T13:36:40;36.80;93.60
22852;DHT22;11592;45.460;9.240;2023-06-22T13:39:07;36.40;94.70
22852;DHT22;11592;45.460;9.240;2023-06-22T13:41:34;36.40;95.40
22852;DHT22;11592;45.460;9.240;2023-06-22T13:44:01;36.20;94.90
22852;DHT22;11592;45.460;9.240;2023-06-22T13:46:28;36.00;95.20
22852;DHT22;11592;45.460;9.240;2023-06-22T13:48:55;36.10;95.60
22852;DHT22;11592;45.460;9.240;2023-06-22T13:51:24;36.30;97.10
22852;DHT22;11592;45.460;9.240;2023-06-22T13:53:50;36.10;94.80
22852;DHT22;11592;45.460;9.240;2023-06-22T13:56:18;35.80;94.90
22852;DHT22;11592;45.460;9.240;2023-06-22T13:58:44;35.30;94.90
22852;DHT22;11592;45.460;9.240;2023-06-22T14:01:11;35.10;95.30
22852;DHT22;11592;45.460;9.240;2023-06-22T14:03:43;35.40;95.80
22852;DHT22;11592;45.460;9.240;2023-06-22T14:06:12;35.40;96.10
22852;DHT22;11592;45.460;9.240;2023-06-22T14:08:39;35.60;97.30
22852;DHT22;11592;45.460;9.240;2023-06-22T14:11:08;35.70;95.90
22852;DHT22;11592;45.460;9.240;2023-06-22T14:13:35;35.70;97.10
22852;DHT22;11592;45.460;9.240;2023-06-22T14:16:02;36.00;96.20
22852;DHT22;11592;45.460;9.240;2023-06-22T14:18:30;36.00;95.80
22852;DHT22;11592;45.460;9.240;2023-06-22T14:20:57;36.00;96.50
22852;DHT22;11592;45.460;9.240;2023-06-22T14:23:24;36.30;96.40
22852;DHT22;11592;45.460;9.240;2023-06-22T14:25:51;36.50;94.90
22852;DHT22;11592;45.460;9.240;2023-06-22T14:28:18;37.00;94.50
22852;DHT22;11592;45.460;9.240;2023-06-22T14:30:45;37.40;93.40
22852;DHT22;11592;45.460;9.240;2023-06-22T14:33:12;37.60;93.20
22852;DHT22;11592;45.460;9.240;2023-06-22T14:35:39;37.50;92.70
22852;DHT22;11592;45.460;9.240;2023-06-22T14:38:06;37.00;92.90
22852;DHT22;11592;45.460;9.240;2023-06-22T14:40:33;36.40;93.10
22852;DHT22;11592;45.460;9.240;2023-06-22T14:43:13;36.50;95.60
22852;DHT22;11592;45.460;9.240;2023-06-22T14:45:41;36.30;93.70
22852;DHT22;11592;45.460;9.240;2023-06-22T14:48:08;35.70;94.20
22852;DHT22;11592;45.460;9.240;2023-06-22T14:50:35;35.60;94.50
22852;DHT22;11592;45.460;9.240;2023-06-22T14:53:03;35.90;94.30
22852;DHT22;11592;45.460;9.240;2023-06-22T14:55:29;36.40;95.20
22852;DHT22;11592;45.460;9.240;2023-06-22T14:57:56;36.50;93.60
22852;DHT22;11592;45.460;9.240;2023-06-22T15:00:23;36.70;94.90
22852;DHT22;11592;45.460;9.240;2023-06-22T15:02:50;37.00;94.10
22852;DHT22;11592;45.460;9.240;2023-06-22T15:05:18;37.00;93.20
22852;DHT22;11592;45.460;9.240;2023-06-22T15:07:45;36.50;93.90
22852;DHT22;11592;45.460;9.240;2023-06-22T15:10:11;36.40;92.90
22852;DHT22;11592;45.460;9.240;2023-06-22T15:12:38;36.10;92.90
22852;DHT22;11592;45.460;9.240;2023-06-22T15:15:06;35.90;92.80
22852;DHT22;11592;45.460;9.240;2023-06-22T15:17:33;35.10;93.00
22852;DHT22;11592;45.460;9.240;2023-06-22T15:19:59;34.50;93.30
22852;DHT22;11592;45.460;9.240;2023-06-22T15:22:27;34.50;93.10
22852;DHT22;11592;45.460;9.240;2023-06-22T15:24:53;34.70;92.90
22852;DHT22;11592;45.460;9.240;2023-06-22T15:27:20;34.80;91.00
22852;DHT22;11592;45.460;9.240;2023-06-22T15:29:47;34.60;90.40
22852;DHT22;11592;45.460;9.240;2023-06-22T15:32:14;34.50;90.40
22852;DHT22;11592;45.460;9.240;2023-06-22T15:34:41;34.90;91.00
22852;DHT22;11592;45.460;9.240;2023-06-22T15:37:08;35.20;90.90
22852;DHT22;11592;45.460;9.240;2023-06-22T15:39:35;35.20;92.00